Time;durP1;ratioP1;P1;durP2;ratioP2;P2;SDS_P1;SDS_P2;PMS_P1;PMS_P2;Temp;Humidity;BMP_temperature;BMP_pressure;BME280_temperature;BME280_humidity;BME280_pressure;Samples;Min_cycle;Max_cycle;Signal;HPM_P1;HPM_P2
2022/01/24 00:01:55;;;;;;;7.97;6.00;;;5.60;99.90;;;;;;4991531;28;20311;-49
2022/01/24 00:04:23;;;;;;;7.63;5.88;;;5.60;99.90;;;;;;5023811;28;20206;-49
2022/01/24 00:06:52;;;;;;;6.75;5.40;;;5.60;99.90;;;;;;5001755;28;20238;-49
2022/01/24 00:09:20;;;;;;;7.30;6.10;;;5.60;99.90;;;;;;4990381;28;20218;-48
2022/01/24 00:12:01;;;;;;;7.22;5.60;;;5.60;99.90;;;;;;4997828;28;20685;-48
2022/01/24 00:17:18;;;;;;;8.68;6.20;;;5.60;99.90;;;;;;5006012;28;20288;-48
2022/01/24 00:28:03;;;;;;;7.30;5.25;;;5.60;99.90;;;;;;4997976;28;20237;-47
2022/01/24 00:30:31;;;;;;;8.20;6.40;;;5.60;99.90;;;;;;5005495;28;20677;-47
2022/01/24 00:33:00;;;;;;;7.75;5.65;;;5.60;99.90;;;;;;5009765;28;20197;-48
2022/01/24 00:35:28;;;;;;;6.97;5.63;;;5.60;99.90;;;;;;5004648;28;20609;-48
2022/01/24 00:38:00;;;;;;;8.32;6.03;;;5.60;99.90;;;;;;4998480;28;20229;-48
2022/01/24 00:40:29;;;;;;;8.20;5.70;;;5.60;99.90;;;;;;5005758;28;20264;-45
2022/01/24 00:42:58;;;;;;;6.53;5.70;;;5.60;99.90;;;;;;5012362;28;20185;-48
2022/01/24 00:45:34;;;;;;;7.65;5.13;;;5.60;99.90;;;;;;5028846;28;20209;-48
2022/01/24 00:48:22;;;;;;;7.47;5.10;;;5.60;99.90;;;;;;5000973;28;20757;-48
2022/01/24 00:53:51;;;;;;;7.85;6.25;;;5.60;99.90;;;;;;4990612;28;20217;-49
2022/01/24 00:56:19;;;;;;;7.93;6.00;;;5.60;99.90;;;;;;4989384;28;20226;-48
2022/01/24 00:58:47;;;;;;;6.07;4.90;;;5.60;99.90;;;;;;4999816;28;20644;-48
2022/01/24 01:01:16;;;;;;;8.07;5.90;;;5.60;99.90;;;;;;5007223;28;20366;-47
2022/01/24 01:03:46;;;;;;;8.27;6.20;;;5.60;99.90;;;;;;4994155;28;20300;-47
2022/01/24 01:06:15;;;;;;;6.35;5.28;;;5.60;99.90;;;;;;5008472;28;20225;-48
2022/01/24 01:20:02;;;;;;;6.50;4.68;;;5.60;99.90;;;;;;5008524;28;20319;-48
2022/01/24 01:22:30;;;;;;;6.18;4.03;;;5.60;99.90;;;;;;5007436;28;20709;-49
2022/01/24 01:24:58;;;;;;;5.85;4.75;;;5.60;99.90;;;;;;5008482;28;20249;-49
2022/01/24 01:27:33;;;;;;;5.45;4.30;;;5.60;99.90;;;;;;4998825;28;20314;-48
2022/01/24 01:30:06;;;;;;;5.68;4.70;;;5.60;99.90;;;;;;4992319;28;20205;-50
2022/01/24 01:32:51;;;;;;;6.90;4.60;;;5.60;99.90;;;;;;4992845;28;20297;-49
2022/01/24 01:35:40;;;;;;;4.68;3.53;;;5.60;99.90;;;;;;4988284;28;20225;-48
2022/01/24 01:38:34;;;;;;;5.40;4.10;;;5.60;99.90;;;;;;4988681;28;20203;-48
2022/01/24 01:52:34;;;;;;;6.38;4.45;;;5.60;99.90;;;;;;5002407;28;20317;-48
2022/01/24 01:55:24;;;;;;;5.32;4.03;;;5.60;99.90;;;;;;4988732;28;20203;-48
2022/01/24 01:57:52;;;;;;;4.97;4.00;;;5.60;99.90;;;;;;5016368;28;20578;-49
2022/01/24 02:00:20;;;;;;;4.90;4.15;;;5.60;99.90;;;;;;4992940;28;20221;-49
2022/01/24 02:02:48;;;;;;;4.68;4.13;;;5.60;99.90;;;;;;4999146;28;20191;-50
2022/01/24 02:05:17;;;;;;;5.50;4.38;;;5.60;99.90;;;;;;5002820;28;20194;-48
2022/01/24 02:07:52;;;;;;;5.35;4.18;;;5.60;99.90;;;;;;4992108;28;20256;-48
2022/01/24 02:10:25;;;;;;;4.65;3.88;;;5.60;99.90;;;;;;4990726;28;20305;-48
2022/01/24 02:12:55;;;;;;;5.72;3.78;;;5.60;99.90;;;;;;4994117;28;20280;-49
2022/01/24 02:15:28;;;;;;;5.88;4.43;;;5.60;99.90;;;;;;5011262;28;20202;-49
2022/01/24 02:18:06;;;;;;;5.82;4.82;;;5.60;99.90;;;;;;4997976;28;20197;-49
2022/01/24 02:20:54;;;;;;;5.47;4.10;;;5.60;99.90;;;;;;5003618;28;20226;-49
2022/01/24 02:23:39;;;;;;;5.28;4.05;;;5.60;99.90;;;;;;5007378;28;20598;-48
2022/01/24 02:26:10;;;;;;;5.20;4.38;;;5.60;99.90;;;;;;5003206;28;20656;-48
2022/01/24 02:28:49;;;;;;;4.78;3.75;;;5.60;99.90;;;;;;5000170;28;20229;-50
2022/01/24 02:31:38;;;;;;;5.28;3.47;;;5.60;99.90;;;;;;5011104;28;20222;-48
2022/01/24 02:34:20;;;;;;;5.18;4.30;;;5.60;99.90;;;;;;4999378;28;20412;-49
2022/01/24 02:36:49;;;;;;;5.15;4.00;;;5.60;99.90;;;;;;5010921;28;20799;-48
2022/01/24 02:39:44;;;;;;;4.40;3.50;;;5.60;99.90;;;;;;4997487;28;20297;-49
2022/01/24 02:50:54;;;;;;;4.53;4.10;;;5.60;99.90;;;;;;5010089;28;20218;-48
2022/01/24 02:53:22;;;;;;;4.18;3.17;;;5.60;99.90;;;;;;5011141;28;20198;-48
2022/01/24 02:55:51;;;;;;;4.22;3.75;;;5.60;99.90;;;;;;5009874;28;20700;-47
2022/01/24 02:58:20;;;;;;;5.25;3.80;;;5.60;99.90;;;;;;5009507;28;20712;-48
2022/01/24 03:00:50;;;;;;;5.22;4.15;;;5.60;99.90;;;;;;5009889;28;20241;-48
2022/01/24 03:03:19;;;;;;;6.85;3.63;;;5.60;99.90;;;;;;5002387;28;20216;-48
2022/01/24 03:05:47;;;;;;;5.20;3.47;;;5.60;99.90;;;;;;4990688;28;20914;-48
2022/01/24 03:08:15;;;;;;;4.53;3.33;;;5.50;99.90;;;;;;4990074;28;20245;-48
2022/01/24 03:10:45;;;;;;;4.88;3.80;;;5.50;99.90;;;;;;4991824;28;20218;-48
2022/01/24 03:13:32;;;;;;;6.13;4.60;;;5.50;99.90;;;;;;5022520;28;20194;-48
2022/01/24 03:16:03;;;;;;;4.60;4.07;;;5.60;99.90;;;;;;4995263;28;20305;-49
2022/01/24 03:18:31;;;;;;;4.68;3.03;;;5.60;99.90;;;;;;5000777;28;20206;-48
2022/01/24 03:21:01;;;;;;;3.78;3.47;;;5.60;99.90;;;;;;5041564;28;20221;-49
2022/01/24 03:23:29;;;;;;;4.00;3.58;;;5.50;99.90;;;;;;5010116;28;20212;-49
2022/01/24 03:25:57;;;;;;;4.07;3.25;;;5.50;99.90;;;;;;5005013;28;20210;-47
2022/01/24 03:28:26;;;;;;;5.10;3.42;;;5.50;99.90;;;;;;4990401;28;20313;-48
2022/01/24 03:30:55;;;;;;;4.07;3.33;;;5.50;99.90;;;;;;4990802;28;20269;-47
2022/01/24 03:33:23;;;;;;;5.03;3.65;;;5.60;99.90;;;;;;4998697;28;20612;-49
2022/01/24 03:35:51;;;;;;;3.75;3.30;;;5.50;99.90;;;;;;5040605;28;20241;-49
2022/01/24 03:38:19;;;;;;;4.30;3.28;;;5.50;99.90;;;;;;5010402;28;20198;-49
2022/01/24 03:40:47;;;;;;;3.53;3.20;;;5.50;99.90;;;;;;4999775;28;20242;-49
2022/01/24 03:43:17;;;;;;;5.68;3.70;;;5.50;99.90;;;;;;5003254;28;20203;-49
2022/01/24 03:45:58;;;;;;;4.35;3.35;;;5.50;99.90;;;;;;4990106;28;20785;-48
2022/01/24 03:48:38;;;;;;;4.47;3.58;;;5.60;99.90;;;;;;4997297;28;20214;-50
2022/01/24 03:51:06;;;;;;;4.22;3.83;;;5.50;99.90;;;;;;5009518;28;20702;-49
2022/01/24 03:53:35;;;;;;;4.85;3.35;;;5.50;99.90;;;;;;5009460;28;20194;-49
2022/01/24 03:56:04;;;;;;;4.05;3.47;;;5.50;99.90;;;;;;4994587;28;20640;-49
2022/01/24 03:58:32;;;;;;;3.55;3.25;;;5.50;99.90;;;;;;4998702;28;20268;-48
2022/01/24 04:01:03;;;;;;;4.43;3.33;;;5.50;99.90;;;;;;5009835;28;20300;-49
2022/01/24 04:03:32;;;;;;;2.97;2.67;;;5.50;99.90;;;;;;5004940;28;20285;-48
2022/01/24 04:06:00;;;;;;;3.53;3.22;;;5.50;99.90;;;;;;5022192;28;20305;-48
2022/01/24 04:08:28;;;;;;;4.30;2.67;;;5.50;99.90;;;;;;5005055;28;20221;-47
2022/01/24 04:10:57;;;;;;;4.93;3.47;;;5.50;99.90;;;;;;4989673;28;20294;-47
2022/01/24 04:13:29;;;;;;;4.22;3.60;;;5.50;99.90;;;;;;5007920;28;20190;-47
2022/01/24 04:16:12;;;;;;;4.78;3.05;;;5.50;99.90;;;;;;5007972;28;20789;-49
2022/01/24 04:18:50;;;;;;;3.33;3.03;;;5.50;99.90;;;;;;5001549;28;20225;-50
2022/01/24 04:21:23;;;;;;;4.22;3.47;;;5.50;99.90;;;;;;5003319;28;20226;-49
2022/01/24 04:23:57;;;;;;;3.35;2.88;;;5.50;99.90;;;;;;4989822;28;20286;-47
2022/01/24 04:26:25;;;;;;;3.60;2.80;;;5.50;99.90;;;;;;5015635;28;20237;-49
2022/01/24 04:28:53;;;;;;;4.53;2.92;;;5.50;99.90;;;;;;5000755;28;20693;-49
2022/01/24 04:31:23;;;;;;;5.07;3.53;;;5.50;99.90;;;;;;5008770;28;20256;-48
2022/01/24 04:33:53;;;;;;;4.00;2.97;;;5.50;99.90;;;;;;5003340;28;20252;-49
2022/01/24 04:36:23;;;;;;;3.13;2.65;;;5.50;99.90;;;;;;5002537;28;20306;-49
2022/01/24 04:38:51;;;;;;;3.15;2.63;;;5.50;99.90;;;;;;5005101;28;20202;-47
2022/01/24 04:41:24;;;;;;;4.18;2.95;;;5.50;99.90;;;;;;5007821;28;20236;-49
2022/01/24 04:44:04;;;;;;;3.85;2.90;;;5.50;99.90;;;;;;5009690;28;20247;-49
2022/01/24 04:46:55;;;;;;;3.65;2.90;;;5.50;99.90;;;;;;5009066;28;20994;-48
2022/01/24 04:52:24;;;;;;;4.63;3.47;;;5.50;99.90;;;;;;4998047;28;20286;-48
2022/01/24 04:54:52;;;;;;;3.17;2.78;;;5.50;99.90;;;;;;4989296;28;20286;-50
2022/01/24 04:57:23;;;;;;;3.85;2.67;;;5.50;99.90;;;;;;5003042;28;20257;-48
2022/01/24 04:59:53;;;;;;;4.55;3.13;;;5.50;99.90;;;;;;5008787;28;20218;-48
2022/01/24 05:02:22;;;;;;;3.47;2.60;;;5.50;99.90;;;;;;4996242;28;20301;-48
2022/01/24 05:04:53;;;;;;;3.00;2.38;;;5.50;99.90;;;;;;5007822;28;20213;-48
2022/01/24 05:07:21;;;;;;;2.60;2.30;;;5.50;99.90;;;;;;4988248;28;20242;-48
2022/01/24 05:09:56;;;;;;;2.90;2.50;;;5.50;99.90;;;;;;4989880;28;20232;-50
2022/01/24 05:12:33;;;;;;;3.17;2.70;;;5.50;99.90;;;;;;4997421;28;20683;-48
2022/01/24 05:23:30;;;;;;;4.88;3.30;;;5.40;99.90;;;;;;4973381;28;20269;-50
2022/01/24 05:26:00;;;;;;;3.95;3.25;;;5.40;99.90;;;;;;5008439;28;20237;-46
2022/01/24 05:28:29;;;;;;;3.15;2.90;;;5.40;99.90;;;;;;4992120;28;20309;-50
2022/01/24 05:30:58;;;;;;;3.10;2.80;;;5.40;99.90;;;;;;4990964;28;20230;-49
2022/01/24 05:33:27;;;;;;;4.40;3.00;;;5.40;99.90;;;;;;4999820;28;20190;-49
2022/01/24 05:35:56;;;;;;;3.55;2.60;;;5.40;99.90;;;;;;5011685;28;20317;-48
2022/01/24 05:38:24;;;;;;;3.05;2.63;;;5.40;99.90;;;;;;4997827;28;20772;-49
2022/01/24 05:40:53;;;;;;;3.63;2.97;;;5.40;99.90;;;;;;4995011;28;20386;-48
2022/01/24 05:43:21;;;;;;;3.90;3.10;;;5.40;99.90;;;;;;5011645;28;20210;-48
2022/01/24 05:45:49;;;;;;;2.97;2.67;;;5.40;99.90;;;;;;5011019;28;20218;-48
2022/01/24 05:48:17;;;;;;;2.95;2.72;;;5.40;99.90;;;;;;5004501;28;20268;-48
2022/01/24 05:50:46;;;;;;;3.95;3.17;;;5.40;99.90;;;;;;5012027;28;20751;-49
2022/01/24 05:53:15;;;;;;;2.85;2.50;;;5.40;99.90;;;;;;4990806;28;20670;-48
2022/01/24 05:55:43;;;;;;;4.25;3.17;;;5.40;99.90;;;;;;4991875;28;20304;-48
2022/01/24 05:58:11;;;;;;;3.10;2.80;;;5.40;99.90;;;;;;5010173;28;20186;-49
2022/01/24 06:00:39;;;;;;;3.80;3.10;;;5.40;99.90;;;;;;5011819;28;20268;-50
2022/01/24 06:03:08;;;;;;;4.72;3.25;;;5.40;99.90;;;;;;5000702;28;20217;-48
2022/01/24 06:05:36;;;;;;;3.33;3.00;;;5.40;99.90;;;;;;4991733;28;20230;-48
2022/01/24 06:08:04;;;;;;;4.63;3.33;;;5.40;99.90;;;;;;4991908;28;20202;-48
2022/01/24 06:10:36;;;;;;;2.97;2.65;;;5.40;99.90;;;;;;4992576;28;20314;-49
2022/01/24 06:13:05;;;;;;;3.10;2.30;;;5.40;99.90;;;;;;4995573;28;20285;-47
2022/01/24 06:15:34;;;;;;;3.67;3.25;;;5.40;99.90;;;;;;5010829;28;20218;-49
2022/01/24 06:18:02;;;;;;;3.47;2.67;;;5.40;99.90;;;;;;5003306;28;20202;-49
2022/01/24 06:20:30;;;;;;;2.90;2.60;;;5.40;99.90;;;;;;4991685;28;20494;-49
2022/01/24 06:22:58;;;;;;;3.83;2.95;;;5.40;99.90;;;;;;4992146;28;20285;-49
2022/01/24 06:25:28;;;;;;;2.88;2.40;;;5.40;99.90;;;;;;5003593;28;20260;-48
2022/01/24 06:27:57;;;;;;;2.95;2.75;;;5.40;99.90;;;;;;4992956;28;20207;-49
2022/01/24 06:30:25;;;;;;;3.42;3.00;;;5.40;99.90;;;;;;5010878;28;20238;-49
2022/01/24 06:32:53;;;;;;;4.35;3.80;;;5.40;99.90;;;;;;5001956;28;20237;-48
2022/01/24 06:35:21;;;;;;;4.80;3.17;;;5.40;99.90;;;;;;5010500;28;20205;-50
2022/01/24 06:37:49;;;;;;;3.45;3.15;;;5.40;99.90;;;;;;5010835;28;20276;-49
2022/01/24 06:40:17;;;;;;;3.50;3.17;;;5.40;99.90;;;;;;4992176;28;20321;-48
2022/01/24 06:42:45;;;;;;;2.90;2.60;;;5.40;99.90;;;;;;5019618;28;20620;-48
2022/01/24 06:45:15;;;;;;;3.40;2.92;;;5.40;99.90;;;;;;4993197;28;20203;-48
2022/01/24 06:47:44;;;;;;;3.00;2.55;;;5.40;99.90;;;;;;5010806;28;20202;-49
2022/01/24 06:50:12;;;;;;;2.95;2.65;;;5.40;99.90;;;;;;5004516;28;20731;-47
2022/01/24 06:52:40;;;;;;;4.35;3.25;;;5.30;99.90;;;;;;5000820;28;20194;-48
2022/01/24 06:55:09;;;;;;;3.25;2.95;;;5.40;99.90;;;;;;5004137;28;20277;-47
2022/01/24 06:57:38;;;;;;;3.83;3.30;;;5.30;99.90;;;;;;5009551;28;20238;-48
2022/01/24 07:00:08;;;;;;;3.63;3.00;;;5.30;99.90;;;;;;5009445;28;20276;-49
2022/01/24 07:02:37;;;;;;;3.92;3.05;;;5.30;99.90;;;;;;5009070;28;20213;-48
2022/01/24 07:05:06;;;;;;;4.13;3.25;;;5.40;99.90;;;;;;5010753;28;20197;-49
2022/01/24 07:07:34;;;;;;;3.33;3.03;;;5.30;99.90;;;;;;5010325;28;20237;-48
2022/01/24 07:10:02;;;;;;;3.35;2.50;;;5.30;99.90;;;;;;5011094;28;20755;-48
2022/01/24 07:12:51;;;;;;;3.45;3.15;;;5.30;99.90;;;;;;4998425;28;20296;-48
2022/01/24 07:15:19;;;;;;;4.10;2.30;;;5.30;99.90;;;;;;4995985;28;20236;-48
2022/01/24 07:18:14;;;;;;;2.72;2.53;;;5.30;99.90;;;;;;5000471;28;20211;-49
2022/01/24 07:20:42;;;;;;;3.15;2.83;;;5.30;99.90;;;;;;5010045;28;20696;-48
2022/01/24 07:23:10;;;;;;;2.85;2.53;;;5.30;99.90;;;;;;5009336;28;20193;-47
2022/01/24 07:25:44;;;;;;;3.22;2.92;;;5.30;99.90;;;;;;4996425;28;20301;-48
2022/01/24 07:28:12;;;;;;;4.05;3.20;;;5.30;99.90;;;;;;5007494;28;20241;-50
2022/01/24 07:30:40;;;;;;;3.13;2.70;;;5.30;99.90;;;;;;5007450;28;20759;-47
2022/01/24 07:33:09;;;;;;;4.32;3.08;;;5.30;99.90;;;;;;4997808;28;20210;-48
2022/01/24 07:35:37;;;;;;;3.03;2.50;;;5.30;99.90;;;;;;5006401;28;20252;-46
2022/01/24 07:38:06;;;;;;;3.78;3.00;;;5.30;99.90;;;;;;5010416;28;20192;-47
2022/01/24 07:40:38;;;;;;;3.20;2.70;;;5.30;99.90;;;;;;5009387;28;20276;-47
2022/01/24 07:43:11;;;;;;;4.88;3.20;;;5.30;99.90;;;;;;4998586;28;20225;-49
2022/01/24 07:45:41;;;;;;;3.20;2.92;;;5.30;99.90;;;;;;5010081;28;20593;-48
2022/01/24 07:48:11;;;;;;;4.35;3.42;;;5.30;99.90;;;;;;5003649;28;20217;-48
2022/01/24 07:50:42;;;;;;;3.72;3.25;;;5.30;99.90;;;;;;5003588;28;20305;-48
2022/01/24 07:53:12;;;;;;;3.17;2.88;;;5.30;99.90;;;;;;4990355;28;20230;-48
2022/01/24 07:55:57;;;;;;;3.85;2.95;;;5.30;99.90;;;;;;4989454;28;20225;-48
2022/01/24 07:58:28;;;;;;;4.43;3.45;;;5.30;99.90;;;;;;4990810;28;20214;-48
2022/01/24 08:00:57;;;;;;;4.30;3.15;;;5.30;99.90;;;;;;4997531;28;20971;-46
2022/01/24 08:03:27;;;;;;;4.30;3.60;;;5.30;99.90;;;;;;5005251;28;20545;-48
2022/01/24 08:05:58;;;;;;;3.40;3.10;;;5.30;99.90;;;;;;5009398;28;20229;-48
2022/01/24 08:08:26;;;;;;;4.80;3.13;;;5.30;99.90;;;;;;5010203;28;20685;-48
2022/01/24 08:10:54;;;;;;;3.47;2.63;;;5.30;99.90;;;;;;5001483;28;20253;-49
2022/01/24 08:13:25;;;;;;;4.20;3.20;;;5.20;99.90;;;;;;5004033;28;20277;-49
2022/01/24 08:15:55;;;;;;;3.50;3.10;;;5.30;99.90;;;;;;4989196;28;20289;-48
2022/01/24 08:18:23;;;;;;;3.83;3.25;;;5.20;99.90;;;;;;4989470;28;20222;-48
2022/01/24 08:20:53;;;;;;;3.33;3.00;;;5.20;99.90;;;;;;5011073;28;20221;-48
2022/01/24 08:23:21;;;;;;;3.58;3.00;;;5.30;99.90;;;;;;4991505;28;20311;-48
2022/01/24 08:25:55;;;;;;;3.85;3.42;;;5.20;99.90;;;;;;4999996;28;20645;-48
2022/01/24 08:28:23;;;;;;;3.92;2.65;;;5.20;99.90;;;;;;5009676;28;20277;-48
2022/01/24 08:30:52;;;;;;;3.50;2.90;;;5.20;99.90;;;;;;5004863;28;20308;-48
2022/01/24 08:33:20;;;;;;;5.28;3.53;;;5.20;99.90;;;;;;5002057;28;20232;-49
2022/01/24 08:35:48;;;;;;;4.20;3.40;;;5.20;99.90;;;;;;5008975;28;20767;-49
2022/01/24 08:38:18;;;;;;;3.35;2.42;;;5.30;99.90;;;;;;5009183;28;20653;-48
2022/01/24 08:40:49;;;;;;;4.38;3.28;;;5.20;99.90;;;;;;5006493;28;20271;-47
2022/01/24 08:43:24;;;;;;;4.63;3.25;;;5.20;99.90;;;;;;4994312;28;20286;-48
2022/01/24 08:45:58;;;;;;;3.53;2.90;;;5.20;99.90;;;;;;5020577;28;20292;-47
2022/01/24 08:48:28;;;;;;;3.97;3.53;;;5.20;99.90;;;;;;4990460;28;20228;-48
2022/01/24 08:50:57;;;;;;;3.58;2.90;;;5.20;99.90;;;;;;4989224;28;20253;-47
2022/01/24 08:53:30;;;;;;;4.65;3.22;;;5.30;99.90;;;;;;5008878;28;20182;-49
2022/01/24 08:55:59;;;;;;;4.38;3.08;;;5.20;99.90;;;;;;4989792;28;20218;-48
2022/01/24 08:58:29;;;;;;;5.85;3.45;;;5.20;99.90;;;;;;4994997;28;20210;-48
2022/01/24 09:00:58;;;;;;;3.10;2.80;;;5.20;99.90;;;;;;5008323;28;20232;-49
2022/01/24 09:03:29;;;;;;;3.40;3.10;;;5.20;99.90;;;;;;4999363;28;20214;-48
2022/01/24 09:05:59;;;;;;;2.92;2.35;;;5.20;99.90;;;;;;5010739;28;20225;-49
2022/01/24 09:08:30;;;;;;;4.55;3.58;;;5.20;99.90;;;;;;5009094;28;20894;-49
2022/01/24 09:10:58;;;;;;;4.45;3.25;;;5.20;99.90;;;;;;4993313;28;20273;-49
2022/01/24 09:13:26;;;;;;;3.25;2.80;;;5.20;99.90;;;;;;4998976;28;20187;-49
2022/01/24 09:15:54;;;;;;;3.10;2.65;;;5.20;99.90;;;;;;5011448;28;20217;-48
2022/01/24 09:18:22;;;;;;;2.90;2.50;;;5.30;99.90;;;;;;5001044;28;20300;-49
2022/01/24 09:20:51;;;;;;;4.65;2.58;;;5.20;99.90;;;;;;5012459;28;20233;-48
2022/01/24 09:23:19;;;;;;;3.58;3.15;;;5.30;99.90;;;;;;5013169;28;20216;-49
2022/01/24 09:25:49;;;;;;;3.08;2.63;;;5.30;99.90;;;;;;5010739;28;20245;-48
2022/01/24 09:28:18;;;;;;;4.20;2.70;;;5.30;99.90;;;;;;4995485;28;20650;-48
2022/01/24 09:30:46;;;;;;;4.28;3.00;;;5.30;99.90;;;;;;5011559;28;20229;-47
2022/01/24 09:33:14;;;;;;;3.95;3.22;;;5.30;99.90;;;;;;5004546;28;20338;-48
2022/01/24 09:35:44;;;;;;;2.95;2.72;;;5.30;99.90;;;;;;5000275;28;21186;-48
2022/01/24 09:38:13;;;;;;;3.80;2.83;;;5.30;99.90;;;;;;4993008;28;20617;-49
2022/01/24 09:40:41;;;;;;;3.83;3.03;;;5.30;99.90;;;;;;4993334;28;20222;-49
2022/01/24 09:43:11;;;;;;;4.35;3.58;;;5.30;99.90;;;;;;4996125;28;20182;-49
2022/01/24 09:45:39;;;;;;;5.00;3.15;;;5.30;99.90;;;;;;5011856;28;20619;-48
2022/01/24 09:48:08;;;;;;;3.40;2.72;;;5.30;99.90;;;;;;5000298;28;20289;-48
2022/01/24 09:50:36;;;;;;;3.85;2.85;;;5.30;99.90;;;;;;5004437;28;20316;-49
2022/01/24 09:53:04;;;;;;;4.15;3.50;;;5.30;99.90;;;;;;5011876;28;20197;-46
2022/01/24 09:55:53;;;;;;;3.03;2.75;;;5.30;99.90;;;;;;5005065;28;20300;-49
2022/01/24 09:58:41;;;;;;;3.80;2.90;;;5.30;99.90;;;;;;4999777;28;20774;-48
2022/01/24 10:01:21;;;;;;;4.10;3.70;;;5.30;99.90;;;;;;5012102;28;20376;-49
2022/01/24 10:04:15;;;;;;;4.30;3.90;;;5.30;99.90;;;;;;5007301;28;20210;-50
2022/01/24 10:07:01;;;;;;;4.20;3.13;;;5.30;99.90;;;;;;4997413;28;20233;-48
2022/01/24 10:09:35;;;;;;;3.30;2.80;;;5.30;99.90;;;;;;5011915;28;20237;-48
2022/01/24 10:12:14;;;;;;;5.75;3.53;;;5.30;99.90;;;;;;5005636;28;20297;-48
2022/01/24 10:17:37;;;;;;;3.97;3.15;;;5.30;99.90;;;;;;5015147;28;20308;-49
2022/01/24 10:20:20;;;;;;;3.53;3.22;;;5.30;99.90;;;;;;4994647;28;20300;-49
2022/01/24 10:23:02;;;;;;;4.40;3.10;;;5.30;99.90;;;;;;5007569;28;20253;-49
2022/01/24 10:25:31;;;;;;;4.13;3.70;;;5.30;99.90;;;;;;4997644;28;20234;-49
2022/01/24 10:28:04;;;;;;;3.50;3.08;;;5.30;99.90;;;;;;5009491;28;20205;-49
2022/01/24 10:30:33;;;;;;;4.55;3.58;;;5.30;99.90;;;;;;5099740;22;20245;-48
2022/01/24 10:33:04;;;;;;;3.78;2.95;;;5.30;99.90;;;;;;5061059;28;20201;-51
2022/01/24 10:35:36;;;;;;;4.30;3.58;;;5.30;99.90;;;;;;5030887;28;20193;-49
2022/01/24 10:38:39;;;;;;;3.22;2.60;;;5.30;99.90;;;;;;5050379;28;20299;-48
2022/01/24 10:41:18;;;;;;;3.70;3.13;;;5.30;99.90;;;;;;5014227;28;20936;-49
2022/01/24 10:43:48;;;;;;;3.42;3.10;;;5.30;99.90;;;;;;5047572;28;20342;-48
2022/01/24 10:46:24;;;;;;;4.68;3.00;;;5.30;99.90;;;;;;5049670;28;20220;-49
2022/01/24 10:49:03;;;;;;;4.43;2.85;;;5.30;99.90;;;;;;5039342;28;21063;-49
2022/01/24 10:51:37;;;;;;;4.10;3.58;;;5.30;99.90;;;;;;5050054;28;20311;-49
2022/01/24 10:54:06;;;;;;;4.13;3.22;;;5.30;99.90;;;;;;5049718;28;20283;-49
2022/01/24 10:56:37;;;;;;;3.58;2.53;;;5.30;99.90;;;;;;5035169;28;20216;-49
2022/01/24 10:59:15;;;;;;;3.63;3.13;;;5.30;99.90;;;;;;5045429;28;20792;-49
2022/01/24 11:01:47;;;;;;;4.55;3.67;;;5.30;99.90;;;;;;5048889;28;20248;-48
2022/01/24 11:04:18;;;;;;;4.28;3.40;;;5.30;99.90;;;;;;5046179;28;20215;-49
2022/01/24 11:06:47;;;;;;;3.13;2.80;;;5.30;99.90;;;;;;5048086;28;20216;-48
2022/01/24 11:09:22;;;;;;;3.70;3.40;;;5.30;99.90;;;;;;5047705;28;20228;-48
2022/01/24 11:11:53;;;;;;;3.40;3.10;;;5.30;99.90;;;;;;5041397;28;20236;-49
2022/01/24 11:14:21;;;;;;;4.40;3.33;;;5.30;99.90;;;;;;5044297;28;20195;-50
2022/01/24 11:16:53;;;;;;;3.75;2.70;;;5.30;99.90;;;;;;5047136;28;21066;-49
2022/01/24 11:19:28;;;;;;;4.03;3.67;;;5.30;99.90;;;;;;5044533;28;20219;-48
2022/01/24 11:21:57;;;;;;;4.20;3.78;;;5.30;99.90;;;;;;5049055;28;20234;-49
2022/01/24 11:24:36;;;;;;;3.42;3.10;;;5.30;99.90;;;;;;5029482;28;20572;-49
2022/01/24 11:27:25;;;;;;;3.50;3.20;;;5.30;99.90;;;;;;5034626;28;20229;-48
2022/01/24 11:29:56;;;;;;;3.70;2.92;;;5.30;99.90;;;;;;5049084;28;20772;-50
2022/01/24 11:32:28;;;;;;;3.72;3.10;;;5.30;99.90;;;;;;5043143;28;20656;-48
2022/01/24 11:34:58;;;;;;;3.58;3.25;;;5.30;99.90;;;;;;5049400;28;20557;-48
2022/01/24 11:37:35;;;;;;;4.13;3.33;;;5.30;99.90;;;;;;5048201;28;20293;-49
2022/01/24 11:40:08;;;;;;;3.72;2.90;;;5.30;99.90;;;;;;5044805;28;20213;-48
2022/01/24 11:42:37;;;;;;;3.03;2.75;;;5.30;99.90;;;;;;5046423;28;20212;-48
2022/01/24 11:45:44;;;;;;;5.32;3.63;;;5.30;99.90;;;;;;5048522;28;20196;-49
2022/01/24 11:48:19;;;;;;;7.15;3.72;;;5.30;99.90;;;;;;5047925;28;20231;-49
2022/01/24 11:51:09;;;;;;;4.25;3.53;;;5.30;99.90;;;;;;5048812;28;20760;-49
2022/01/24 11:53:56;;;;;;;3.88;3.40;;;5.30;99.90;;;;;;5034436;28;20200;-49
2022/01/24 11:56:43;;;;;;;3.42;3.13;;;5.20;99.90;;;;;;5045460;28;20226;-47
2022/01/24 11:59:30;;;;;;;3.40;3.10;;;5.30;99.90;;;;;;5034289;28;20227;-48
2022/01/24 12:02:10;;;;;;;3.67;3.25;;;5.20;99.90;;;;;;5045601;28;20250;-51
2022/01/24 12:04:58;;;;;;;4.00;3.70;;;5.30;99.90;;;;;;5048172;28;20192;-49
2022/01/24 12:07:28;;;;;;;3.97;3.60;;;5.30;99.90;;;;;;5048718;28;20231;-49
2022/01/24 12:10:17;;;;;;;4.20;3.80;;;5.20;99.90;;;;;;5048376;28;20236;-50
2022/01/24 12:12:49;;;;;;;4.28;3.63;;;5.20;99.90;;;;;;5028878;28;20245;-48
2022/01/24 12:15:54;;;;;;;3.72;3.17;;;5.20;99.90;;;;;;5035417;28;20275;-49
2022/01/24 12:18:44;;;;;;;4.43;2.83;;;5.20;99.90;;;;;;5047468;28;20228;-49
2022/01/24 12:21:15;;;;;;;3.75;3.45;;;5.30;99.90;;;;;;5046192;28;20224;-48
2022/01/24 12:23:44;;;;;;;3.72;3.42;;;5.20;99.90;;;;;;5045305;28;20192;-48
2022/01/24 12:26:38;;;;;;;3.75;3.20;;;5.20;99.90;;;;;;5014095;28;20228;-48
2022/01/24 12:29:09;;;;;;;3.22;2.97;;;5.20;99.90;;;;;;5045645;28;20227;-48
2022/01/24 12:31:42;;;;;;;5.05;3.92;;;5.30;99.90;;;;;;5028065;28;20320;-49
2022/01/24 12:34:27;;;;;;;4.70;3.40;;;5.20;99.90;;;;;;5010657;28;20197;-48
2022/01/24 12:37:08;;;;;;;4.10;2.58;;;5.20;99.90;;;;;;5045174;28;20678;-48
2022/01/24 12:39:45;;;;;;;3.45;3.15;;;5.20;99.90;;;;;;5047968;28;20687;-47
2022/01/24 12:42:19;;;;;;;4.28;3.47;;;5.20;99.90;;;;;;5032223;28;20224;-49
2022/01/24 12:47:37;;;;;;;3.42;3.13;;;5.20;99.90;;;;;;5033681;28;20655;-49
2022/01/24 12:50:07;;;;;;;4.32;2.70;;;5.30;99.90;;;;;;5048474;28;20642;-48
2022/01/24 12:52:38;;;;;;;3.20;2.90;;;5.30;99.90;;;;;;5046932;28;20223;-49
2022/01/24 12:55:09;;;;;;;3.05;2.75;;;5.20;99.90;;;;;;5047800;28;20606;-49
2022/01/24 12:57:42;;;;;;;3.67;3.33;;;5.20;99.90;;;;;;5025402;28;20695;-50
2022/01/24 13:00:13;;;;;;;2.67;2.47;;;5.20;99.90;;;;;;5048472;28;20219;-50
2022/01/24 13:02:41;;;;;;;4.38;3.47;;;5.20;99.90;;;;;;5038786;28;20217;-49
2022/01/24 13:05:12;;;;;;;3.90;2.88;;;5.20;99.90;;;;;;5028071;28;20197;-49
2022/01/24 13:07:48;;;;;;;3.00;2.80;;;5.20;99.90;;;;;;5030712;28;20312;-48
2022/01/24 13:10:18;;;;;;;3.53;2.53;;;5.20;99.90;;;;;;5048140;28;20250;-50
2022/01/24 13:12:56;;;;;;;3.20;2.63;;;5.30;99.90;;;;;;5042597;28;20228;-48
2022/01/24 13:20:25;;;;;;;4.20;3.10;;;5.20;99.90;;;;;;5045891;28;20185;-49
2022/01/24 13:21:15;;;;;;;3.42;2.53;;;5.20;99.90;;;;;;5045338;28;20274;-48
2022/01/24 13:23:51;;;;;;;3.03;2.72;;;5.20;99.90;;;;;;5045318;28;20216;-49
2022/01/24 13:26:20;;;;;;;4.05;3.65;;;5.20;99.90;;;;;;5041903;28;20240;-49
2022/01/24 13:28:48;;;;;;;2.35;2.15;;;5.20;99.90;;;;;;5039552;28;20211;-49
2022/01/24 13:31:16;;;;;;;5.78;3.00;;;5.20;99.90;;;;;;5047170;28;20235;-48
2022/01/24 13:33:47;;;;;;;3.00;2.70;;;5.20;99.90;;;;;;5033867;28;20736;-47
2022/01/24 13:36:16;;;;;;;3.13;2.80;;;5.20;99.90;;;;;;5046355;28;20224;-48
2022/01/24 13:38:48;;;;;;;2.55;2.35;;;5.30;99.90;;;;;;5046321;28;20556;-49
2022/01/24 13:41:17;;;;;;;3.15;2.85;;;5.20;99.90;;;;;;5030098;28;20272;-49
2022/01/24 13:43:54;;;;;;;2.88;2.60;;;5.30;99.90;;;;;;5047301;28;20215;-49
2022/01/24 13:46:25;;;;;;;3.22;2.72;;;5.30;99.90;;;;;;5046665;28;20678;-49
2022/01/24 13:48:59;;;;;;;2.53;2.15;;;5.20;99.90;;;;;;5032649;28;20299;-48
2022/01/24 13:51:33;;;;;;;3.83;2.60;;;5.30;99.90;;;;;;5048086;28;20739;-49
2022/01/24 13:54:04;;;;;;;2.47;2.25;;;5.30;99.90;;;;;;5051358;28;20223;-49
2022/01/24 13:56:35;;;;;;;2.90;2.70;;;5.30;99.90;;;;;;5043944;28;20270;-48
2022/01/24 13:59:18;;;;;;;3.30;2.65;;;5.30;99.90;;;;;;5031411;28;20213;-48
2022/01/24 14:02:01;;;;;;;4.05;2.75;;;5.20;99.90;;;;;;5046203;28;20323;-48
2022/01/24 14:04:36;;;;;;;2.50;2.30;;;5.30;99.90;;;;;;5047473;28;20663;-49
2022/01/24 14:07:07;;;;;;;3.50;2.95;;;5.20;99.90;;;;;;5050570;28;20266;-49
2022/01/24 14:09:39;;;;;;;2.88;2.67;;;5.20;99.90;;;;;;5048621;28;20263;-47
2022/01/24 14:12:09;;;;;;;3.70;2.92;;;5.30;99.90;;;;;;5028749;28;20354;-49
2022/01/24 14:14:43;;;;;;;4.18;3.00;;;5.30;99.90;;;;;;5049961;28;20541;-48
2022/01/24 14:17:25;;;;;;;5.35;3.08;;;5.30;99.90;;;;;;5045323;28;20225;-49
2022/01/24 14:19:58;;;;;;;3.20;2.35;;;5.30;99.90;;;;;;5045026;28;20639;-47
2022/01/24 14:22:39;;;;;;;3.10;2.80;;;5.30;99.90;;;;;;5050439;28;20216;-49
2022/01/24 14:25:12;;;;;;;5.07;3.67;;;5.30;99.90;;;;;;5050345;28;20379;-48
2022/01/24 14:27:45;;;;;;;4.05;2.80;;;5.30;99.90;;;;;;5037572;28;20317;-49
2022/01/24 14:30:34;;;;;;;3.40;3.10;;;5.30;99.90;;;;;;5049713;28;20200;-47
2022/01/24 14:33:11;;;;;;;3.35;3.10;;;5.30;99.90;;;;;;5038837;28;20537;-49